Weather observations for the past three days for
Hillsboro, Hillsboro Municipal Airport
Imperial (Metric)
Date Time (cdt) Wind (mph) Vis. (mi.) Weather Sky Cond. Temperature (ºF) Relative Humidity Wind Chill (°F) Heat Index (°F) Pressure Precipitation (in)
Air Dwpt 6 hour altimeter (in) sea level (mb) 1 hr 3 hr 6 hr
Max. Min.
04 22:35 S 14 10.00 Fair CLR 74.3 64 70% 29.75 0.0
04 22:15 S 12 G 20 10.00 Fair CLR 74.3 64 70% 29.75 0.0
04 21:55 S 12 10.00 Fair CLR 74.5 64 70% 29.74 0.0
04 21:35 S 13 G 21 10.00 Fair CLR 74.7 63.9 69% 29.74 0.0
04 21:15 S 12 10.00 Fair CLR 74.8 63.7 68% 29.74 0.0
04 20:55 S 8 10.00 Fair CLR 74.5 64.2 70% 29.74 0.0
04 20:35 S 10 10.00 Fair CLR 74.7 64.4 71% 29.73 0.0
04 20:15 S 9 10.00 Fair CLR 75.2 64.4 69% 77 29.73 0.0
04 19:55 S 13 10.00 Fair CLR 76.1 64.2 67% 78 29.74 0.0
04 19:35 S 13 G 18 10.00 Fair CLR 77.2 64 64% 79 29.74 0.0
04 19:15 S 15 G 22 10.00 Fair CLR 77.9 64 63% 80 29.74 0.0
04 18:55 S 20 G 25 10.00 Fair CLR 78.8 63.9 80.8 76.5 60% 80 29.74 0.0
04 18:35 S 17 G 28 10.00 Fair CLR 78.8 63.9 60% 80 29.75 0.0
04 18:15 S 17 G 24 10.00 Fair CLR 78.8 63.9 60% 80 29.76 0.0
04 17:55 S 17 G 26 10.00 Fair CLR 78.4 63.5 60% 80 29.76 0.0
04 17:35 S 18 G 29 10.00 Partly Cloudy SCT039 79.2 63.3 58% 81 29.77 0.0
04 17:15 S 15 G 26 10.00 Partly Cloudy SCT039 79.3 63.5 58% 81 29.77 0.0
04 16:55 S 20 G 26 10.00 Partly Cloudy SCT039 79.2 63.3 58% 81 29.77 0.0
04 16:35 S 17 G 26 10.00 Partly Cloudy SCT039 78.4 63 59% 80 29.79 0.0
04 16:15 S 18 G 28 10.00 Partly Cloudy SCT039 79.9 64 59% 82 29.79 0.0
04 15:55 S 20 G 24 10.00 Partly Cloudy SCT039 80.1 63.5 57% 82 29.8 0.0
04 15:35 S 16 G 26 10.00 Partly Cloudy SCT039 80.8 63.5 56% 82 29.82 0.0
04 15:15 S 20 G 29 10.00 Partly Cloudy SCT039 79.7 62.6 56% 81 29.83 0.0
04 14:55 S 18 G 28 10.00 Partly Cloudy SCT039 79.2 62.8 57% 81 29.85 0.0
04 14:35 S 16 G 26 10.00 Partly Cloudy SCT039 77.9 62.2 59% 80 29.85 0.0
04 14:15 S 18 10.00 Partly Cloudy SCT037 79 63 58% 81 29.86 0.0
04 13:55 S 18 G 26 10.00 Partly Cloudy SCT037 77.4 62.1 59% 79 29.87 0.0
04 13:35 S 21 G 25 10.00 Partly Cloudy and Breezy SCT037 77.7 62.2 59% 79 29.87 0.0
04 13:15 S 20 G 30 10.00 Fair CLR 76.6 61 59% 78 29.88 0.0
04 12:55 S 15 G 25 10.00 Fair CLR 76.3 61.3 76.3 59 60% 78 29.89 0.0
04 12:35 S 20 G 28 10.00 Fair CLR 75.7 60.8 60% 78 29.91 0.0
04 12:15 S 22 G 25 10.00 Fair and Breezy CLR 75.7 60.4 59% 78 29.91 0.0
04 11:55 S 15 G 29 10.00 Fair CLR 74.3 59.9 61% 29.92 0.0
04 11:35 S 17 G 25 10.00 Fair CLR 73.4 58.6 60% 29.93 0.0
04 11:15 S 22 G 30 10.00 Fair and Breezy CLR 72.5 58.3 61% 29.93 0.0
04 10:55 S 23 G 30 10.00 Fair and Breezy CLR 71.6 58.1 63% 29.93 0.0
04 10:35 S 18 G 26 10.00 Fair CLR 70.9 58.3 65% 29.94 0.0
04 10:15 S 21 G 28 10.00 Fair and Breezy CLR 70 57.7 65% 29.95 0.0
04 09:55 S 18 G 23 10.00 Partly Cloudy SCT002 69.1 57.6 67% 29.95 0.0
04 09:35 S 16 G 22 10.00 Fair CLR 67.6 56.7 68% 29.95 0.0
04 09:15 S 13 G 17 10.00 Fair CLR 66.4 56.3 70% 29.96 0.0
04 08:55 S 10 G 18 10.00 Fair CLR 64.6 55.6 73% 29.96 0.0
04 08:35 S 10 10.00 Fair CLR 63.7 55.6 75% 29.96 0.0
04 08:15 S 9 10.00 Fair CLR 62.1 55 78% 29.96 0.0
04 07:55 S 7 10.00 Fair CLR 60.8 54.7 80% 29.95 0.0
04 07:35 S 8 10.00 Fair CLR 59.9 54.3 82% 29.95 0.0
04 07:15 S 7 10.00 Fair CLR 59 54.5 85% 29.94 0.0
04 06:55 S 7 10.00 Fair CLR 59 54.5 63.7 58.3 85% 29.94 0.0
04 06:35 S 6 10.00 Fair CLR 58.5 54.5 87% 29.94 0.0
04 06:15 S 7 10.00 Fair CLR 58.5 54.5 87% 29.94 0.0
04 05:55 S 6 10.00 Fair CLR 58.5 54.5 87% 29.94 0.0
04 05:35 S 8 10.00 Fair CLR 59.2 53.8 82% 29.94 0.0
04 05:15 S 8 10.00 Fair CLR 59.2 53.6 82% 29.95 0.0
04 04:55 S 7 10.00 Fair CLR 59 53.6 82% 29.95 0.0
04 04:35 S 6 10.00 Fair CLR 59.2 53.6 82% 29.95 0.0
04 04:15 S 7 10.00 Fair CLR 59.5 53.6 81% 29.96 0.0
04 03:55 S 7 10.00 Fair CLR 59.2 53.4 81% 29.96 0.0
04 03:35 S 7 10.00 Fair CLR 59.5 53.2 80% 29.96 0.0
04 03:15 S 7 10.00 Fair CLR 60.3 53.2 78% 29.96 0.0
04 02:55 S 8 10.00 Fair CLR 61.2 53.1 75% 29.97 0.0
04 02:35 S 10 10.00 Fair CLR 61.7 52.9 73% 29.97 0.0
04 02:15 S 12 10.00 Fair CLR 62.6 52.7 70% 29.97 0.0
04 01:55 S 12 10.00 Fair CLR 63 52.2 68% 29.98 0.0
04 01:35 S 12 10.00 Fair CLR 63.1 51.1 65% 29.99 0.0
04 01:15 S 10 10.00 Fair CLR 63.5 50.9 64% 30 0.0
04 00:55 S 9 10.00 Fair CLR 63.9 50.9 75.7 63.7 63% 30 0.0
04 00:35 S 10 10.00 Fair CLR 64 51.1 63% 30 0.0
04 00:15 S 10 10.00 Fair CLR 64.4 51.3 63% 30.01 0.0
03 23:55 S 10 10.00 Fair CLR 65.3 51.4 61% 30.01 0.0
03 23:35 S 10 10.00 Fair CLR 65.7 51.4 60% 30.02 0.0
03 23:15 S 8 10.00 Fair CLR 64.4 52 64% 30.02 0.0
03 22:55 SE 8 10.00 Fair CLR 64.9 52.2 63% 30.02 0.0
03 22:35 SE 8 10.00 Fair CLR 65.7 52 61% 30.01 0.0
03 22:15 SE 9 10.00 Fair CLR 65.7 52 61% 30.01 0.0
03 21:55 SE 8 10.00 Fair CLR 65.8 50.9 59% 30.02 0.0
03 21:35 SE 7 10.00 Fair CLR 66.2 50.7 58% 30.01 0.0
03 21:15 S 8 10.00 Fair CLR 67.1 50.4 55% 30.01 0.0
03 20:55 S 8 10.00 Fair CLR 66.6 51.1 58% 30.01 0.0
03 20:35 S 7 10.00 Fair CLR 67.6 52 57% 30.01 0.0
03 20:15 S 7 10.00 Fair CLR 68.5 52.9 58% 30.01 0.0
03 19:55 S 6 10.00 Fair CLR 69.4 53.8 58% 30.01 0.0
03 19:35 SE 6 10.00 Fair CLR 71.6 53.4 53% 30.01 0.0
03 19:15 S 8 10.00 Fair CLR 73.9 51.6 46% 30.01 0.0
03 18:55 S 12 10.00 Fair CLR 75.6 50.2 79.7 74.8 41% 78 30.02 0.0
03 18:35 S 12 10.00 Fair CLR 75.4 49.1 40% 78 30.02 0.0
03 18:15 S 14 G 21 10.00 Fair CLR 77.5 47.7 35% 78 30.02 0.0
03 17:55 S 15 G 18 10.00 Fair CLR 78.3 48.9 36% 79 30.03 0.0
03 17:35 S 14 G 17 10.00 Fair CLR 79 48.6 34% 79 30.03 0.0
03 17:15 S 15 10.00 Fair CLR 78.8 48.6 35% 79 30.03 0.0
03 16:55 S 12 G 18 10.00 Fair CLR 78.6 48.7 35% 79 30.04 0.0
03 16:35 S 13 G 23 10.00 Fair CLR 79.2 48.6 34% 79 30.05 0.0
03 16:15 S 13 G 18 10.00 Fair CLR 79.5 48.2 33% 79 30.07 0.0
03 15:55 SW 13 10.00 Fair CLR 79.5 49.1 35% 79 30.08 0.0
03 15:35 S 15 G 18 10.00 Partly Cloudy SCT080 79.2 49.3 35% 79 30.09 0.0
03 15:15 S 8 10.00 Fair CLR 79.2 51.4 38% 79 30.09 0.0
03 14:55 SW 8 10.00 Fair CLR 79 50.7 37% 79 30.1 0.0
03 14:35 S 12 10.00 Fair CLR 79 51.3 38% 79 30.11 0.0
03 14:15 S 9 10.00 Fair CLR 78.6 50.9 38% 79 30.12 0.0
03 13:55 S 10 G 17 10.00 Fair CLR 78.3 51.1 39% 79 30.13 0.0
03 13:35 S 9 10.00 Fair CLR 77.7 52.2 41% 79 30.14 0.0
03 13:15 SW 13 G 17 10.00 Fair CLR 77.2 52.3 42% 78 30.15 0.0
03 12:55 SW 10 G 16 10.00 Fair CLR 76.8 52.5 77 53.1 43% 78 30.16 0.0
03 12:35 SW 10 G 16 10.00 Fair CLR 76.3 53.6 45% 78 30.17 0.0
03 12:15 SW 10 10.00 Fair CLR 75.4 52.9 46% 78 30.18 0.0
03 11:55 SW 8 G 16 10.00 Fair CLR 75 53.8 48% 78 30.19 0.0
03 11:35 SW 7 10.00 Fair CLR 74.5 55 51% 30.19 0.0
03 11:15 SW 10 10.00 Fair CLR 73.6 53.4 49% 30.19 0.0
03 10:55 SW 13 G 16 10.00 Fair CLR 72.1 53.1 51% 30.19 0.0
03 10:35 SW 7 10.00 Fair CLR 70.2 55.4 60% 30.2 0.0
03 10:15 S 8 10.00 Fair CLR 68.2 55 63% 30.2 0.0
03 09:55 SW 6 10.00 Fair CLR 67.3 54.7 64% 30.19 0.0
03 09:35 SW 6 10.00 Fair CLR 65.7 53.8 66% 30.19 0.0
03 09:15 SW 3 10.00 Fair CLR 63.5 53.6 70% 30.19 0.0
03 08:55 Calm 10.00 Fair CLR 61.9 53.8 75% 30.19 0.0
03 08:35 Calm 10.00 Fair CLR 60.6 53.4 77% 30.18 0.0
03 08:15 Calm 10.00 Fair CLR 58.6 56.1 91% 30.18 0.0
03 07:55 Calm 10.00 Fair CLR 57 57 100% 30.18 0.0
03 07:35 Calm 10.00 Fair CLR 55 54.9 99% 30.17 0.0
03 07:15 Calm 10.00 Fair CLR 53.6 53.6 100% 30.16 0.0
03 06:55 Calm 10.00 Fair CLR 53.2 53.2 56.5 51.4 100% 30.15 0.0
03 06:35 Calm 10.00 Fair CLR 52.7 52.7 100% 30.15 0.0
03 06:15 S 3 10.00 Fair CLR 53.1 53.1 100% 30.14 0.0
03 05:55 S 5 10.00 Fair CLR 52.7 52.7 100% 30.14 0.0
03 05:35 S 3 10.00 Fair CLR 52.2 52.2 100% 30.14 0.0
03 05:15 Calm 10.00 Fair CLR 51.8 51.8 100% 30.14 0.0
03 04:55 S 5 10.00 Fair CLR 51.8 51.8 100% 30.14 0.0
03 04:35 Calm 10.00 Fair CLR 52.9 52.9 100% 30.14 0.0
03 04:15 S 3 10.00 Fair CLR 53.2 53.2 100% 30.14 0.0
03 03:55 Calm 10.00 Fair CLR 53.2 51.8 95% 30.14 0.0
03 03:35 Calm 10.00 Fair CLR 53.4 53.2 99% 30.14 0.0
03 03:15 Calm 10.00 Fair CLR 53.8 50.9 90% 30.14 0.0
03 02:55 Calm 10.00 Fair CLR 54.7 49.8 84% 30.14 0.0
03 02:35 Calm 10.00 Fair CLR 55.2 49.5 81% 30.14 0.0
03 02:15 Calm 10.00 Fair CLR 55.4 49.3 80% 30.14 0.0
03 01:55 S 3 10.00 Fair CLR 54.7 49.8 84% 30.15 0.0
03 01:35 Calm 10.00 Fair CLR 55.4 49.3 80% 30.15 0.0
03 01:15 Calm 10.00 Fair CLR 54.9 49.5 82% 30.15 0.0
03 00:55 Calm 10.00 Fair CLR 56.1 49.6 73.4 55.9 79% 30.15 0.0
03 00:35 Calm 10.00 Fair CLR 56.7 51.1 82% 30.15 0.0
03 00:15 Calm 10.00 Fair CLR 57.2 51.4 81% 30.14 0.0
02 23:55 Calm 10.00 Fair CLR 57.7 51.6 80% 30.14 0.0
02 23:35 Calm 10.00 Fair CLR 58.8 50.4 74% 30.14 0.0
02 23:15 Calm 10.00 Fair CLR 58.8 51.1 76% 30.14 0.0
02 22:55 Calm 10.00 Fair CLR 60.1 50.9 72% 30.14 0.0
02 22:35 Calm 10.00 Fair CLR 61 50.9 70% 30.14 0.0
02 22:15 SE 3 10.00 Fair CLR 60.1 51.3 73% 30.13 0.0
02 21:55 Calm 10.00 Fair CLR 59.9 54 81% 30.13 0.0
02 21:35 Calm 10.00 Fair CLR 59.4 56.5 90% 30.12 0.0
02 21:15 Calm 10.00 Fair CLR 60.1 56.7 89% 30.11 0.0
02 20:55 Calm 10.00 Fair CLR 61.7 55.8 81% 30.11 0.0
02 20:35 Calm 10.00 Fair CLR 62.6 56.3 80% 30.11 0.0
02 20:15 Calm 10.00 Fair CLR 65.5 57.9 77% 30.11 0.0
02 19:55 Calm 10.00 Fair CLR 70.7 52 52% 30.11 0.0
02 19:35 Calm 10.00 Fair CLR 72 48.4 43% 30.1 0.0
02 19:15 Calm 10.00 Fair CLR 72.5 49.6 45% 30.1 0.0
02 18:55 Calm 10.00 Fair CLR 73.4 46.4 75 70.9 38% 30.1 0.0
02 18:35 NW 3 10.00 Fair CLR 73.9 45.1 36% 30.11 0.0
02 18:15 N 5 10.00 Fair CLR 74.5 46.4 37% 30.11 0.0
02 17:55 NW 3 10.00 Fair CLR 74.5 45.7 36% 30.11 0.0
02 17:35 NW 3 10.00 Fair CLR 74.7 46.6 37% 30.11 0.0
02 17:15 N 5 10.00 Fair CLR 74.5 45.9 36% 30.11 0.0
02 16:55 N 8 10.00 Fair CLR 74.7 46.2 36% 30.11 0.0
02 16:35 N 3 10.00 Fair CLR 73.9 45.1 36% 30.12 0.0
02 16:15 N 8 10.00 Fair CLR 74.7 46.4 37% 30.13 0.0
02 15:55 NW 6 10.00 Fair CLR 74.3 46.4 37% 30.13 0.0
02 15:35 NW 8 10.00 Fair CLR 73.8 45.7 37% 30.14 0.0
02 15:15 N 12 10.00 Fair CLR 74.1 47.7 39% 30.14 0.0
02 14:55 NE 6 10.00 Fair CLR 73.8 46.6 38% 30.14 0.0
02 14:40 Calm 10.00 Fair CLR 73.6 45 36% 30.15 0.0
02 14:15 Calm 10.00 Fair CLR 72.9 44.4 36% 30.16 0.0
02 13:55 N 5 10.00 Fair CLR 72.7 46 39% 30.16 0.0
02 13:35 N 6 10.00 Fair CLR 71.8 46.4 40% 30.17 0.0
02 13:15 Calm 10.00 Fair CLR 71.8 47.5 42% 30.18 0.0
02 12:55 NW 6 10.00 Fair CLR 71.1 46.9 71.2 47.5 42% 30.18 0.0
02 12:35 NW 5 10.00 Fair CLR 70 46.6 43% 30.19 0.0
02 12:15 NW 6 10.00 Fair CLR 70 47.3 45% 30.2 0.0
02 11:55 N 8 10.00 Fair CLR 69.6 50.4 51% 30.2 0.0
02 11:35 N 7 10.00 Fair CLR 68.2 48.6 50% 30.2 0.0
02 11:15 NW 8 10.00 Fair CLR 67.6 50.2 54% 30.2 0.0
02 10:55 NW 9 10.00 Fair CLR 66.9 51.1 57% 30.19 0.0
02 10:35 N 9 10.00 Fair CLR 66.4 51.8 60% 30.19 0.0
02 10:15 NW 9 10.00 Fair CLR 64.8 51.1 61% 30.19 0.0
02 09:55 NW 9 10.00 Fair CLR 63.3 51.3 65% 30.19 0.0
02 09:35 NW 7 10.00 Fair CLR 61.7 51.3 69% 30.19 0.0
02 09:15 NW 6 10.00 Fair CLR 58.6 51.4 77% 30.19 0.0
02 08:55 NW 6 10.00 Fair CLR 56.7 54.5 93% 30.18 0.0
02 08:35 NW 5 10.00 Fair CLR 54.9 54.9 100% 30.17 0.0
02 08:15 Calm 10.00 Fair CLR 52.5 52.5 100% 30.17 0.0
02 07:55 Calm 10.00 Fair CLR 50.7 50.7 100% 30.16 0.0
02 07:35 Calm 10.00 Fair CLR 47.8 47.8 100% 30.16 0.0
02 07:15 Calm 10.00 Fair CLR 47.5 47.5 100% 30.15 0.0
02 06:55 Calm 10.00 Fair CLR 47.5 47.5 50.9 46.2 100% 30.14 0.0
02 06:35 Calm 10.00 Fair CLR 46.8 46.8 100% 30.12 0.0
02 06:15 N 3 10.00 Fair CLR 47.3 47.3 100% 30.12 0.0
02 05:55 Calm 10.00 Fair CLR 46.9 46.9 100% 30.11 0.0
02 05:35 N 5 10.00 Fair CLR 47.3 47.3 100% 46 30.09 0.0
02 05:15 Calm 10.00 Fair CLR 48.2 48.2 100% 30.1 0.0
02 04:55 Calm 10.00 Fair CLR 48.9 48.9 100% 30.1 0.0
02 04:35 Calm 10.00 Fair CLR 48.2 48.2 100% 30.1 0.0
02 04:15 N 3 10.00 Fair CLR 48.2 48.2 100% 30.09 0.0
02 03:55 Calm 10.00 Fair CLR 49.1 49.1 100% 30.09 0.0
02 03:35 Calm 10.00 Fair CLR 49.1 49.1 100% 30.09 0.0
02 03:15 N 3 10.00 Fair CLR 49.8 49.8 100% 30.09 0.0
02 02:55 Calm 10.00 Fair CLR 50.5 50.5 100% 30.09 0.0
02 02:35 Calm 10.00 Fair CLR 50.4 50.4 100% 30.09 0.0
02 02:15 N 3 10.00 Fair CLR 49.3 49.3 100% 30.1 0.0
02 01:55 Calm 10.00 Partly Cloudy SCT049 50.9 50.9 100% 30.1 0.0
02 01:35 Calm 10.00 Partly Cloudy SCT049 50.4 50.4 100% 30.1 0.0
02 01:15 N 3 10.00 Fair CLR 49.5 49.5 100% 30.11 0.0
02 00:55 Calm 10.00 Partly Cloudy SCT049 51.1 51.1 60.3 50.9 100% 30.1 0.0
02 00:35 Calm 10.00 Mostly Cloudy BKN049 50.9 50.9 100% 30.11 0.0
02 00:15 Calm 10.00 Partly Cloudy SCT049 51.4 51.4 100% 30.1 0.0
01 23:55 Calm 10.00 Partly Cloudy SCT050 51.3 51.3 100% 30.1 0.0
01 23:35 Calm 10.00 Fair CLR 51.8 51.8 100% 30.09 0.0
01 23:15 Calm 10.00 Partly Cloudy SCT090 53.4 53.4 100% 30.09 0.0
01 22:55 Calm 10.00 Overcast OVC090 54 54 100% 30.09 0.0
Date Time (cdt) Wind (mph) Vis. (mi.) Weather Sky Cond. Air Dwpt Max. Min. Relative Humidity Wind Chill (°F) Heat Index (°F) altimeter (in) sea level (mb) 1 hr 3 hr 6 hr
6 hour
Temperature (ºF) Pressure Precipitation (in)